Hauptseite
METAR-TAF:

METAR-TAF

Flughäfen :

Valley, Wales

Breite: 53-15N, Länge: 004-32W, Höhe: 1 m

Beobachtung

Neuester Wetterbericht von vor 36 Minuten, um 13:20 UTC
Wind 7 kt aus Nordost
Temperatur 20°C
Luftfeuchtigkeit 40%
Luftdruck 1036 hPa
Sichtweite 10 km oder mehr
Leicht bewölkt in der Höhe von 3200 ft
Aufgelockert bewölkt in der Höhe von 30000 ft

METAR: EGOV 271320Z 04007KT 9999 FEW032 SCT300 20/06 Q1036 NOSIG RMK BLU BLU

Zeit: 14:56 (13:56 UTC)

Prognose

Neuester Wetterbericht von vor 3 Stunden und 12 Minuten, um 10:44 UTC
Gültige Prognose vom 27 um 12 UTC bis 27 um 17 UTC
Wind 7 kt aus Nord
Sichtweite 10 km oder mehr
Leicht bewölkt in der Höhe von 4000 ft

TAF: EGOV 271044Z 2712/2717 36007KT 9999 FEW040

Wetterbeobachtungen und Prognosen von mehr als 4000 Flughäfen (METAR und TAF Bericht).

Die verfügbaren Stationen werden durch gelbe und rote Markierungen auf der Karte dargestellt.

Führen Sie die Maus auf sie, um den Namen der Station zu sehen.

Darauf klicken, um die Beobachtung von Wetterbeobachtungen und Prognosen zu sehen.

Um die Karte zu ändern : klicken Sie auf den grünen Tasten mit einem schwarzen Kreuz Zum Vergrößern, auf den grünen Button mit einem Gedankenstrich zu verkleinern, oder auf die grünen Pfeile für benachbarte Karten.


METAR-TAF: